createdAt,value
2022-08-29T00:01:07.051Z,2.20
2022-08-29T00:03:33.363Z,2.03
2022-08-29T00:05:59.664Z,2.22
2022-08-29T00:08:26.073Z,2.60
2022-08-29T00:10:52.694Z,3.20
2022-08-29T00:13:19.648Z,2.45
2022-08-29T00:15:45.963Z,2.30
2022-08-29T00:18:13.741Z,2.63
2022-08-29T00:20:40.144Z,2.38
2022-08-29T00:23:06.981Z,2.15
2022-08-29T00:25:33.288Z,2.50
2022-08-29T00:27:59.748Z,2.35
2022-08-29T00:30:26.244Z,2.55
2022-08-29T00:32:52.938Z,2.42
2022-08-29T00:35:21.306Z,2.50
2022-08-29T00:37:47.833Z,2.42
2022-08-29T00:40:17.226Z,1.83
2022-08-29T00:42:44.135Z,2.42
2022-08-29T00:45:11.440Z,2.33
2022-08-29T00:47:40.149Z,2.15
2022-08-29T00:50:08.781Z,2.55
2022-08-29T00:52:37.587Z,2.50
2022-08-29T00:55:06.557Z,2.63
2022-08-29T00:57:33.459Z,2.42
2022-08-29T01:00:00.051Z,2.70
2022-08-29T01:02:26.455Z,2.40
2022-08-29T01:04:54.041Z,2.65
2022-08-29T01:07:20.301Z,2.15
2022-08-29T01:09:47.041Z,2.70
2022-08-29T01:12:17.235Z,2.45
2022-08-29T01:14:47.718Z,2.63
2022-08-29T01:17:16.074Z,2.60
2022-08-29T01:19:48.135Z,2.72
2022-08-29T01:22:17.401Z,2.67
2022-08-29T01:24:51.571Z,2.53
2022-08-29T01:27:22.174Z,2.30
2022-08-29T01:29:48.471Z,2.95
2022-08-29T01:32:15.315Z,2.60
2022-08-29T01:34:42.169Z,2.70
2022-08-29T01:37:09.867Z,2.65
2022-08-29T01:39:37.395Z,2.60
2022-08-29T01:42:05.618Z,3.05
2022-08-29T01:44:32.098Z,2.60
2022-08-29T01:47:02.701Z,2.60
2022-08-29T01:49:29.791Z,2.28
2022-08-29T01:51:56.057Z,2.88
2022-08-29T01:54:22.390Z,2.92
2022-08-29T01:56:51.942Z,2.47
2022-08-29T01:59:27.264Z,2.50
2022-08-29T02:01:57.041Z,2.53
2022-08-29T02:04:23.555Z,2.92
2022-08-29T02:06:50.230Z,2.75
2022-08-29T02:09:17.046Z,2.47
2022-08-29T02:11:46.370Z,3.28
2022-08-29T02:14:19.530Z,3.13
2022-08-29T02:16:46.409Z,2.80
2022-08-29T02:19:12.762Z,2.70
2022-08-29T02:21:39.381Z,2.60
2022-08-29T02:24:24.024Z,2.78
2022-08-29T02:26:51.662Z,3.00
2022-08-29T02:29:18.089Z,2.55
2022-08-29T02:31:44.428Z,2.63
2022-08-29T02:34:11.494Z,2.67
2022-08-29T02:36:38.145Z,2.75
2022-08-29T02:39:07.620Z,2.50
2022-08-29T02:41:36.547Z,3.03
2022-08-29T02:44:03.159Z,2.78
2022-08-29T02:46:29.516Z,2.90
2022-08-29T02:49:00.376Z,2.60
2022-08-29T02:51:28.687Z,2.85
2022-08-29T02:53:55.622Z,3.28
2022-08-29T02:56:21.990Z,2.90
2022-08-29T02:58:50.389Z,2.90
2022-08-29T03:01:17.765Z,3.33
2022-08-29T03:03:44.154Z,2.47
2022-08-29T03:06:10.491Z,3.08
2022-08-29T03:08:37.812Z,2.78
2022-08-29T03:11:05.856Z,3.17
2022-08-29T03:13:33.555Z,2.90
2022-08-29T03:16:00.368Z,3.20
2022-08-29T03:18:27.766Z,2.88
2022-08-29T03:20:54.025Z,2.90
2022-08-29T03:23:20.343Z,2.92
2022-08-29T03:25:46.615Z,2.97
2022-08-29T03:28:13.025Z,3.15
2022-08-29T03:30:40.046Z,3.40
2022-08-29T03:33:09.942Z,3.25
2022-08-29T03:35:38.126Z,2.97
2022-08-29T03:38:04.407Z,3.53
2022-08-29T03:40:30.714Z,3.25
2022-08-29T03:42:57.020Z,3.78
2022-08-29T03:45:23.974Z,3.22
2022-08-29T03:47:52.027Z,3.50
2022-08-29T03:50:20.018Z,3.28
2022-08-29T03:52:46.551Z,3.25
2022-08-29T03:55:13.473Z,3.00
2022-08-29T03:57:39.830Z,3.25
2022-08-29T04:00:10.890Z,3.30
2022-08-29T04:02:37.536Z,3.40
2022-08-29T04:05:09.886Z,3.80
2022-08-29T04:07:45.166Z,3.50
2022-08-29T04:10:13.397Z,3.63
2022-08-29T04:12:39.727Z,4.00
2022-08-29T04:15:06.314Z,3.85
2022-08-29T04:17:32.980Z,3.42
2022-08-29T04:19:59.307Z,3.78
2022-08-29T04:22:25.588Z,3.65
2022-08-29T04:24:52.479Z,3.78
2022-08-29T04:27:18.717Z,3.47
2022-08-29T04:29:48.256Z,4.03
2022-08-29T04:32:15.595Z,3.90
2022-08-29T04:34:41.880Z,3.60
2022-08-29T04:37:08.177Z,3.63
2022-08-29T04:39:34.953Z,3.75
2022-08-29T04:42:01.243Z,3.80
2022-08-29T04:44:27.472Z,3.58
2022-08-29T04:46:53.740Z,3.40
2022-08-29T04:49:21.524Z,3.97
2022-08-29T04:51:47.924Z,3.83
2022-08-29T04:54:14.198Z,4.53
2022-08-29T04:56:44.378Z,3.78
2022-08-29T04:59:14.091Z,4.00
2022-08-29T05:01:42.438Z,3.80
2022-08-29T05:04:14.150Z,3.75
2022-08-29T05:06:41.139Z,3.63
2022-08-29T05:09:07.425Z,3.75
2022-08-29T05:11:34.329Z,4.30
2022-08-29T05:14:01.147Z,3.83
2022-08-29T05:16:29.834Z,4.43
2022-08-29T05:18:56.531Z,3.60
2022-08-29T05:21:25.923Z,3.83
2022-08-29T05:23:52.625Z,3.80
2022-08-29T05:26:19.890Z,3.63
2022-08-29T05:28:46.886Z,4.00
2022-08-29T05:31:14.434Z,3.97
2022-08-29T05:33:41.018Z,3.42
2022-08-29T05:36:07.499Z,3.70
2022-08-29T05:38:33.764Z,4.00
2022-08-29T05:41:01.133Z,3.60
2022-08-29T05:43:27.411Z,4.25
2022-08-29T05:46:02.052Z,4.40
2022-08-29T05:48:28.382Z,3.65
2022-08-29T05:50:54.632Z,3.80
2022-08-29T05:53:21.191Z,3.55
2022-08-29T05:55:47.480Z,3.83
2022-08-29T05:58:13.916Z,3.83
2022-08-29T06:00:40.963Z,4.18
2022-08-29T06:03:07.564Z,4.20
2022-08-29T06:05:33.893Z,3.88
2022-08-29T06:08:00.191Z,4.43
2022-08-29T06:10:26.472Z,4.13
2022-08-29T06:12:52.753Z,3.85
2022-08-29T06:15:19.123Z,3.88
2022-08-29T06:17:45.408Z,3.90
2022-08-29T06:20:11.887Z,3.53
2022-08-29T06:22:40.482Z,3.97
2022-08-29T06:25:28.315Z,3.55
2022-08-29T06:27:54.679Z,3.40
2022-08-29T06:30:21.026Z,3.50
2022-08-29T06:32:47.344Z,4.13
2022-08-29T06:35:13.638Z,3.78
2022-08-29T06:37:41.189Z,3.30
2022-08-29T06:40:07.858Z,3.60
2022-08-29T06:42:34.643Z,3.67
2022-08-29T06:45:00.952Z,3.47
2022-08-29T06:47:27.364Z,3.47
2022-08-29T06:49:53.642Z,3.22
2022-08-29T06:52:19.915Z,3.60
2022-08-29T06:54:46.243Z,3.63
2022-08-29T06:57:12.814Z,3.72
2022-08-29T06:59:39.071Z,3.97
2022-08-29T07:02:05.363Z,4.10
2022-08-29T07:04:32.193Z,3.65
2022-08-29T07:06:58.499Z,4.15
2022-08-29T07:09:25.985Z,3.78
2022-08-29T07:11:53.828Z,3.90
2022-08-29T07:14:20.268Z,3.60
2022-08-29T07:16:46.700Z,3.35
2022-08-29T07:19:12.992Z,3.33
2022-08-29T07:21:39.757Z,3.58
2022-08-29T07:24:06.516Z,3.78
2022-08-29T07:26:36.160Z,3.63
2022-08-29T07:29:05.137Z,4.00
2022-08-29T07:31:31.611Z,3.78
2022-08-29T07:34:02.650Z,3.40
2022-08-29T07:36:30.094Z,3.40
2022-08-29T07:38:56.378Z,3.05
2022-08-29T07:41:24.039Z,2.90
2022-08-29T07:43:50.427Z,3.40
2022-08-29T07:46:18.210Z,3.20
2022-08-29T07:48:44.677Z,3.55
2022-08-29T07:51:12.465Z,3.17
2022-08-29T07:53:39.273Z,3.00
2022-08-29T07:56:06.903Z,4.35
2022-08-29T07:58:33.429Z,3.20
2022-08-29T08:00:59.841Z,3.20
2022-08-29T08:03:27.056Z,3.33
2022-08-29T08:05:53.466Z,2.42
2022-08-29T08:08:19.946Z,3.25
2022-08-29T08:10:51.358Z,3.47
2022-08-29T08:13:18.853Z,3.40
2022-08-29T08:15:45.271Z,2.72
2022-08-29T08:18:15.401Z,2.90
2022-08-29T08:20:48.068Z,2.50
2022-08-29T08:23:16.047Z,2.25
2022-08-29T08:25:42.791Z,2.60
2022-08-29T08:28:09.503Z,2.80
2022-08-29T08:30:36.055Z,2.80
2022-08-29T08:33:02.593Z,2.38
2022-08-29T08:35:30.521Z,2.88
2022-08-29T08:37:56.808Z,2.83
2022-08-29T08:40:27.409Z,3.00
2022-08-29T08:43:00.150Z,2.22
2022-08-29T08:45:33.274Z,2.60
2022-08-29T08:48:04.786Z,2.33
2022-08-29T08:50:40.018Z,2.50
2022-08-29T08:53:09.899Z,1.88
2022-08-29T08:55:46.256Z,1.92
2022-08-29T08:58:28.995Z,2.10
2022-08-29T09:01:00.661Z,2.25
2022-08-29T09:03:34.005Z,2.05
2022-08-29T09:06:12.009Z,2.03
2022-08-29T09:08:45.767Z,2.30
2022-08-29T09:13:52.098Z,1.70
2022-08-29T09:16:25.130Z,2.92
2022-08-29T09:18:54.114Z,2.03
2022-08-29T09:24:12.270Z,2.25
2022-08-29T09:26:38.564Z,1.98
2022-08-29T09:29:07.006Z,2.28
2022-08-29T09:31:34.785Z,2.33
2022-08-29T09:34:03.463Z,2.03
2022-08-29T09:36:47.535Z,2.25
2022-08-29T09:39:24.579Z,2.40
2022-08-29T09:42:13.813Z,2.20
2022-08-29T09:44:40.892Z,2.03
2022-08-29T09:47:07.222Z,2.10
2022-08-29T09:49:34.238Z,1.90
2022-08-29T09:52:17.128Z,2.13
2022-08-29T09:54:43.872Z,2.00
2022-08-29T09:57:10.585Z,2.00
2022-08-29T09:59:45.231Z,2.33
2022-08-29T10:02:17.057Z,2.25
2022-08-29T10:04:45.692Z,1.85
2022-08-29T10:07:21.100Z,2.10
2022-08-29T10:10:01.625Z,2.22
2022-08-29T10:12:33.699Z,2.13
2022-08-29T10:15:02.270Z,1.88
2022-08-29T10:17:56.482Z,2.10
2022-08-29T10:20:28.313Z,1.70
2022-08-29T10:23:02.727Z,2.20
2022-08-29T10:25:41.103Z,2.30
2022-08-29T10:28:29.490Z,2.00
2022-08-29T10:31:06.627Z,2.10
2022-08-29T10:33:38.951Z,2.00
2022-08-29T10:36:14.735Z,2.05
2022-08-29T10:38:45.930Z,1.70
2022-08-29T10:41:25.084Z,2.60
2022-08-29T10:43:51.339Z,1.95
2022-08-29T10:46:17.759Z,1.92
2022-08-29T10:48:44.415Z,1.80
2022-08-29T10:51:17.272Z,1.90
2022-08-29T10:53:46.604Z,2.13
2022-08-29T10:56:24.769Z,1.80
2022-08-29T10:59:09.678Z,2.33
2022-08-29T11:01:35.988Z,1.75
2022-08-29T11:04:06.488Z,2.15
2022-08-29T11:06:39.026Z,2.00
2022-08-29T11:09:17.494Z,2.30
2022-08-29T11:12:17.415Z,2.13
2022-08-29T11:14:59.761Z,1.95
2022-08-29T11:17:29.562Z,2.13
2022-08-29T11:20:11.278Z,2.40
2022-08-29T11:22:37.528Z,2.00
2022-08-29T11:25:08.035Z,2.20
2022-08-29T11:27:45.145Z,2.13
2022-08-29T11:30:19.804Z,2.08
2022-08-29T11:33:04.166Z,2.00
2022-08-29T11:35:51.524Z,2.38
2022-08-29T11:38:43.167Z,1.80
2022-08-29T11:41:33.775Z,2.30
2022-08-29T11:44:22.901Z,2.20
2022-08-29T11:46:56.349Z,3.25
2022-08-29T11:49:36.364Z,2.20
2022-08-29T11:52:08.536Z,2.28
2022-08-29T11:54:34.791Z,2.03
2022-08-29T11:57:01.036Z,2.15
2022-08-29T11:59:45.957Z,2.15
2022-08-29T12:02:27.570Z,2.90
2022-08-29T12:05:14.240Z,2.50
2022-08-29T12:07:42.766Z,2.53
2022-08-29T12:10:26.968Z,2.55
2022-08-29T12:12:56.412Z,2.58
2022-08-29T12:15:41.744Z,2.38
2022-08-29T12:18:07.960Z,2.42
2022-08-29T12:20:39.254Z,2.67
2022-08-29T12:23:12.522Z,2.30
2022-08-29T12:25:55.195Z,2.45
2022-08-29T12:28:38.116Z,2.63
2022-08-29T12:31:07.227Z,2.70
2022-08-29T12:33:39.624Z,2.47
2022-08-29T12:36:11.401Z,2.40
2022-08-29T12:38:49.853Z,2.42
2022-08-29T12:41:42.511Z,2.40
2022-08-29T12:44:12.509Z,2.78
2022-08-29T12:46:40.814Z,2.60
2022-08-29T12:49:29.469Z,2.15
2022-08-29T12:52:01.713Z,2.20
2022-08-29T12:54:38.577Z,2.40
2022-08-29T12:57:09.204Z,2.58
2022-08-29T12:59:35.439Z,2.05
2022-08-29T13:02:01.727Z,2.65
2022-08-29T13:04:33.579Z,2.38
2022-08-29T13:07:01.396Z,2.88
2022-08-29T13:09:44.442Z,2.17
2022-08-29T13:12:10.743Z,2.10
2022-08-29T13:15:06.529Z,2.40
2022-08-29T13:17:35.105Z,2.35
2022-08-29T13:20:21.057Z,2.50
2022-08-29T13:22:47.325Z,2.50
2022-08-29T13:25:15.725Z,2.50
2022-08-29T13:27:42.053Z,2.30
2022-08-29T13:30:08.562Z,2.60
2022-08-29T13:32:36.248Z,2.47
2022-08-29T13:35:14.323Z,2.17
2022-08-29T13:37:42.940Z,3.00
2022-08-29T13:40:29.673Z,2.83
2022-08-29T13:42:56.486Z,2.63
2022-08-29T13:45:23.733Z,2.83
2022-08-29T13:47:53.011Z,2.92
2022-08-29T13:50:19.437Z,2.88
2022-08-29T13:52:45.701Z,2.28
2022-08-29T13:55:11.958Z,2.70
2022-08-29T13:57:39.697Z,3.25
2022-08-29T14:00:07.390Z,2.78
2022-08-29T14:02:34.091Z,2.22
2022-08-29T14:05:00.533Z,2.72
2022-08-29T14:07:28.115Z,2.90
2022-08-29T14:09:54.911Z,2.65
2022-08-29T14:12:22.019Z,3.50
2022-08-29T14:15:03.058Z,3.08
2022-08-29T14:17:32.992Z,3.10
2022-08-29T14:19:59.229Z,2.72
2022-08-29T14:22:25.491Z,3.10
2022-08-29T14:24:52.985Z,2.60
2022-08-29T14:27:22.119Z,2.95
2022-08-29T14:29:48.864Z,2.80
2022-08-29T14:32:15.193Z,2.70
2022-08-29T14:34:41.560Z,2.55
2022-08-29T14:37:17.391Z,2.75
2022-08-29T14:39:43.645Z,2.75
2022-08-29T14:42:15.901Z,2.42
2022-08-29T14:44:42.119Z,2.20
2022-08-29T14:47:08.424Z,2.25
2022-08-29T14:49:34.666Z,2.42
2022-08-29T14:52:00.982Z,2.72
2022-08-29T14:54:27.285Z,3.10
2022-08-29T14:56:53.535Z,2.28
2022-08-29T14:59:20.685Z,2.58
2022-08-29T15:01:52.954Z,2.33
2022-08-29T15:04:30.381Z,2.35
2022-08-29T15:07:03.305Z,4.68
2022-08-29T15:09:29.575Z,2.42
2022-08-29T15:11:55.863Z,2.40
2022-08-29T15:14:22.300Z,2.70
2022-08-29T15:16:48.551Z,2.60
2022-08-29T15:22:01.179Z,2.63
2022-08-29T15:24:27.466Z,2.33
2022-08-29T15:26:56.343Z,2.63
2022-08-29T15:29:22.614Z,2.50
2022-08-29T15:31:51.521Z,2.38
2022-08-29T15:34:18.605Z,2.85
2022-08-29T15:36:44.910Z,2.67
2022-08-29T15:39:13.054Z,2.70
2022-08-29T15:41:39.367Z,2.60
2022-08-29T15:44:05.702Z,2.45
2022-08-29T15:46:33.641Z,2.50
2022-08-29T15:49:09.200Z,2.40
2022-08-29T15:51:35.780Z,2.53
2022-08-29T15:54:02.345Z,2.53
2022-08-29T15:56:34.886Z,2.65
2022-08-29T15:59:05.675Z,2.10
2022-08-29T16:01:36.191Z,2.38
2022-08-29T16:04:02.733Z,2.60
2022-08-29T16:06:29.014Z,2.75
2022-08-29T16:08:55.275Z,2.55
2022-08-29T16:11:21.850Z,2.67
2022-08-29T16:13:48.117Z,2.58
2022-08-29T16:16:14.815Z,2.80
2022-08-29T16:18:41.510Z,2.67
2022-08-29T16:21:07.938Z,2.35
2022-08-29T16:23:34.331Z,2.28
2022-08-29T16:26:00.628Z,2.75
2022-08-29T16:28:28.722Z,2.70
2022-08-29T16:30:54.973Z,2.97
2022-08-29T16:33:21.245Z,3.25
2022-08-29T16:35:47.485Z,2.50
2022-08-29T16:38:13.877Z,2.80
2022-08-29T16:40:40.405Z,2.38
2022-08-29T16:43:06.749Z,2.65
2022-08-29T16:45:33.272Z,2.22
2022-08-29T16:47:59.860Z,2.65
2022-08-29T16:50:26.580Z,2.22
2022-08-29T16:52:53.023Z,2.60
2022-08-29T16:55:19.644Z,2.40
2022-08-29T16:58:05.943Z,2.65
2022-08-29T17:00:32.354Z,2.70
2022-08-29T17:02:58.740Z,2.60
2022-08-29T17:05:25.133Z,2.58
2022-08-29T17:07:51.383Z,2.53
2022-08-29T17:10:17.648Z,2.90
2022-08-29T17:12:43.889Z,2.58
2022-08-29T17:15:10.149Z,2.70
2022-08-29T17:17:36.363Z,2.63
2022-08-29T17:20:02.700Z,2.80
2022-08-29T17:22:28.986Z,2.60
2022-08-29T17:24:55.235Z,3.22
2022-08-29T17:27:22.720Z,2.80
2022-08-29T17:29:50.282Z,4.40
2022-08-29T17:32:16.859Z,2.88
2022-08-29T17:34:43.181Z,2.70
2022-08-29T17:37:10.241Z,2.78
2022-08-29T17:39:40.000Z,2.90
2022-08-29T17:42:06.567Z,3.13
2022-08-29T17:44:33.272Z,3.05
2022-08-29T17:46:59.604Z,3.28
2022-08-29T17:49:27.119Z,2.90
2022-08-29T17:51:54.055Z,3.55
2022-08-29T17:54:21.236Z,3.05
2022-08-29T17:56:57.974Z,3.10
2022-08-29T17:59:26.522Z,2.83
2022-08-29T18:01:53.369Z,2.95
2022-08-29T18:04:19.731Z,2.92
2022-08-29T18:06:46.981Z,3.00
2022-08-29T18:09:13.525Z,2.72
2022-08-29T18:11:40.754Z,2.92
2022-08-29T18:14:08.371Z,2.92
2022-08-29T18:16:34.835Z,3.03
2022-08-29T18:19:01.242Z,2.70
2022-08-29T18:21:29.496Z,3.40
2022-08-29T18:23:56.444Z,3.05
2022-08-29T18:26:23.268Z,2.92
2022-08-29T18:28:49.833Z,3.53
2022-08-29T18:31:18.470Z,3.00
2022-08-29T18:33:59.978Z,3.03
2022-08-29T18:36:27.807Z,2.85
2022-08-29T18:38:54.305Z,3.45
2022-08-29T18:41:20.817Z,2.60
2022-08-29T18:43:47.285Z,3.03
2022-08-29T18:46:13.923Z,3.22
2022-08-29T18:48:41.972Z,3.53
2022-08-29T18:51:08.215Z,3.15
2022-08-29T18:53:34.544Z,4.22
2022-08-29T18:56:01.004Z,2.90
2022-08-29T18:58:29.468Z,3.00
2022-08-29T19:00:55.988Z,3.15
2022-08-29T19:03:22.732Z,2.92
2022-08-29T19:05:50.386Z,3.17
2022-08-29T19:08:17.822Z,4.05
2022-08-29T19:10:45.759Z,3.28
2022-08-29T19:13:12.716Z,3.65
2022-08-29T19:15:41.326Z,3.33
2022-08-29T19:18:08.769Z,3.47
2022-08-29T19:20:53.540Z,3.03
2022-08-29T19:23:21.240Z,4.35
2022-08-29T19:25:47.820Z,3.67
2022-08-29T19:28:15.089Z,3.15
2022-08-29T19:30:41.909Z,3.60
2022-08-29T19:33:09.059Z,3.50
2022-08-29T19:35:37.883Z,3.08
2022-08-29T19:38:04.663Z,3.63
2022-08-29T19:40:35.674Z,3.30
2022-08-29T19:43:13.602Z,3.40
2022-08-29T19:45:42.016Z,3.03
2022-08-29T19:48:08.399Z,3.47
2022-08-29T19:50:41.354Z,3.60
2022-08-29T19:53:09.117Z,3.50
2022-08-29T19:55:37.065Z,3.60
2022-08-29T19:58:04.931Z,2.97
2022-08-29T20:00:31.504Z,3.83
2022-08-29T20:02:57.842Z,3.60
2022-08-29T20:05:24.625Z,3.03
2022-08-29T20:07:51.294Z,3.20
2022-08-29T20:10:21.297Z,3.30
2022-08-29T20:12:49.452Z,3.35
2022-08-29T20:15:16.233Z,3.28
2022-08-29T20:17:43.174Z,3.25
2022-08-29T20:20:14.793Z,3.08
2022-08-29T20:22:41.238Z,3.03
2022-08-29T20:25:09.923Z,3.30
2022-08-29T20:27:36.538Z,3.40
2022-08-29T20:30:04.737Z,3.55
2022-08-29T20:32:31.319Z,3.42
2022-08-29T20:34:57.641Z,2.90
2022-08-29T20:37:25.774Z,2.97
2022-08-29T20:39:52.555Z,3.40
2022-08-29T20:42:20.664Z,3.55
2022-08-29T20:44:47.492Z,3.20
2022-08-29T20:47:15.036Z,3.15
2022-08-29T20:49:42.686Z,3.58
2022-08-29T20:52:10.991Z,3.45
2022-08-29T20:54:38.737Z,3.70
2022-08-29T20:57:06.429Z,3.50
2022-08-29T20:59:34.499Z,3.10
2022-08-29T21:02:01.990Z,3.08
2022-08-29T21:04:46.779Z,3.45
2022-08-29T21:07:14.057Z,3.65
2022-08-29T21:09:43.054Z,3.13
2022-08-29T21:12:09.914Z,3.45
2022-08-29T21:14:36.191Z,3.40
2022-08-29T21:17:02.983Z,3.33
2022-08-29T21:19:29.892Z,3.70
2022-08-29T21:21:59.921Z,3.30
2022-08-29T21:24:26.581Z,3.35
2022-08-29T21:26:52.852Z,3.10
2022-08-29T21:29:21.857Z,4.03
2022-08-29T21:31:49.024Z,4.18
2022-08-29T21:34:15.867Z,3.95
2022-08-29T21:36:42.256Z,3.00
2022-08-29T21:39:10.243Z,3.40
2022-08-29T21:41:38.988Z,3.78
2022-08-29T21:44:05.437Z,3.13
2022-08-29T21:46:33.232Z,3.42
2022-08-29T21:49:03.852Z,3.17
2022-08-29T21:51:30.751Z,3.45
2022-08-29T21:53:57.469Z,3.42
2022-08-29T21:56:25.071Z,3.65
2022-08-29T21:58:56.133Z,3.83
2022-08-29T22:01:23.845Z,3.63
2022-08-29T22:03:50.708Z,4.28
2022-08-29T22:06:17.930Z,3.40
2022-08-29T22:08:45.570Z,3.20
2022-08-29T22:11:13.641Z,3.30
2022-08-29T22:13:39.874Z,3.50
2022-08-29T22:16:24.809Z,3.40
2022-08-29T22:18:51.187Z,3.40
2022-08-29T22:21:17.857Z,3.45
2022-08-29T22:23:47.078Z,3.42
2022-08-29T22:26:14.210Z,3.08
2022-08-29T22:28:41.020Z,2.95
2022-08-29T22:31:07.462Z,3.40
2022-08-29T22:33:33.852Z,3.33
2022-08-29T22:36:00.146Z,2.97
2022-08-29T22:38:26.450Z,3.08
2022-08-29T22:40:52.662Z,3.65
2022-08-29T22:43:19.024Z,3.40
2022-08-29T22:45:45.604Z,3.40
2022-08-29T22:48:13.185Z,4.10
2022-08-29T22:50:44.448Z,3.33
2022-08-29T22:53:18.431Z,3.10
2022-08-29T22:55:44.742Z,3.30
2022-08-29T22:58:11.030Z,3.20
2022-08-29T23:00:37.439Z,3.40
2022-08-29T23:03:03.827Z,3.28
2022-08-29T23:05:30.130Z,3.38
2022-08-29T23:07:57.014Z,3.42
2022-08-29T23:10:23.315Z,3.63
2022-08-29T23:12:50.507Z,3.60
2022-08-29T23:15:17.537Z,3.53
2022-08-29T23:17:44.725Z,3.20
2022-08-29T23:20:11.747Z,3.22
2022-08-29T23:22:38.375Z,3.28
2022-08-29T23:25:05.244Z,3.55
2022-08-29T23:27:32.037Z,4.13
2022-08-29T23:29:58.983Z,3.17
2022-08-29T23:32:25.691Z,3.42
2022-08-29T23:34:52.271Z,3.70
2022-08-29T23:37:18.641Z,2.88
2022-08-29T23:39:45.248Z,3.00
2022-08-29T23:42:11.517Z,3.05
2022-08-29T23:44:37.754Z,3.28
2022-08-29T23:47:04.096Z,3.15
2022-08-29T23:49:30.442Z,3.25
2022-08-29T23:51:56.678Z,3.22
2022-08-29T23:54:25.478Z,3.75
2022-08-29T23:56:53.255Z,3.53
2022-08-29T23:59:38.382Z,3.50
